Time;durP1;ratioP1;P1;durP2;ratioP2;P2;SDS_P1;SDS_P2;PMS_P1;PMS_P2;Temp;Humidity;BMP_temperature;BMP_pressure;BME280_temperature;BME280_humidity;BME280_pressure;Samples;Min_cycle;Max_cycle;Signal;HPM_P1;HPM_P2
2023/06/12 00:00:54;;;;;;;10.30;6.43;;;;;;;;;;5112384;28;20310;-65
2023/06/12 00:03:21;;;;;;;9.90;6.45;;;;;;;;;;5103908;28;20023;-65
2023/06/12 00:05:47;;;;;;;14.40;6.15;;;;;;;;;;5093871;28;20020;-65
2023/06/12 00:08:13;;;;;;;9.05;6.30;;;;;;;;;;5093538;28;20032;-65
2023/06/12 00:10:39;;;;;;;7.68;5.82;;;;;;;;;;5105613;28;20018;-65
2023/06/12 00:13:05;;;;;;;9.32;5.85;;;;;;;;;;5113354;28;20035;-65
2023/06/12 00:15:30;;;;;;;8.60;5.95;;;;;;;;;;5109691;28;20024;-65
2023/06/12 00:17:55;;;;;;;8.10;6.28;;;;;;;;;;5103442;28;20045;-66
2023/06/12 00:20:20;;;;;;;9.50;6.53;;;;;;;;;;5110870;28;20016;-65
2023/06/12 00:22:46;;;;;;;9.18;6.13;;;;;;;;;;5112893;28;20016;-66
2023/06/12 00:25:11;;;;;;;9.73;5.23;;;;;;;;;;5110797;28;20059;-66
2023/06/12 00:27:36;;;;;;;6.85;5.65;;;;;;;;;;5111056;28;20324;-66
2023/06/12 00:30:02;;;;;;;11.60;6.67;;;;;;;;;;5099775;28;20082;-65
2023/06/12 00:32:30;;;;;;;6.70;5.53;;;;;;;;;;5100182;28;20305;-66
2023/06/12 00:34:55;;;;;;;10.25;5.78;;;;;;;;;;5112431;28;20079;-66
2023/06/12 00:37:24;;;;;;;10.80;6.13;;;;;;;;;;5093940;28;20115;-65
2023/06/12 00:39:49;;;;;;;11.27;6.10;;;;;;;;;;5102677;28;20043;-65
2023/06/12 00:42:15;;;;;;;9.55;6.07;;;;;;;;;;5111947;28;20051;-66
2023/06/12 00:44:40;;;;;;;7.07;5.38;;;;;;;;;;5113186;28;20023;-66
2023/06/12 00:47:05;;;;;;;7.17;5.10;;;;;;;;;;5098993;28;20031;-66
2023/06/12 00:49:30;;;;;;;8.07;5.45;;;;;;;;;;5092437;28;20274;-66
2023/06/12 00:51:56;;;;;;;7.47;5.28;;;;;;;;;;5106374;28;20034;-66
2023/06/12 00:54:21;;;;;;;6.87;5.17;;;;;;;;;;5112383;28;20024;-66
2023/06/12 00:56:47;;;;;;;7.13;5.22;;;;;;;;;;5112119;28;20276;-66
2023/06/12 00:59:13;;;;;;;11.00;6.30;;;;;;;;;;5099311;28;20055;-66
2023/06/12 01:01:38;;;;;;;11.48;5.03;;;;;;;;;;5113079;28;20073;-66
2023/06/12 01:04:03;;;;;;;10.33;6.23;;;;;;;;;;5092698;28;20036;-66
2023/06/12 01:06:51;;;;;;;8.97;5.40;;;;;;;;;;5092843;28;20258;-66
2023/06/12 01:09:31;;;;;;;8.15;5.03;;;;;;;;;;5093824;28;20274;-66
2023/06/12 01:11:56;;;;;;;5.60;4.88;;;;;;;;;;5095903;28;20056;-67
2023/06/12 01:14:22;;;;;;;6.47;5.33;;;;;;;;;;5104099;28;20043;-67
2023/06/12 01:16:47;;;;;;;6.13;4.80;;;;;;;;;;5094832;28;20327;-66
2023/06/12 01:19:15;;;;;;;6.95;4.88;;;;;;;;;;5103187;28;20027;-66
2023/06/12 01:21:43;;;;;;;7.60;5.63;;;;;;;;;;5095933;28;20024;-66
2023/06/12 01:24:18;;;;;;;6.43;5.07;;;;;;;;;;5092841;28;20027;-66
2023/06/12 01:27:03;;;;;;;6.57;4.97;;;;;;;;;;5093211;28;20024;-66
2023/06/12 01:29:47;;;;;;;5.63;4.85;;;;;;;;;;5092676;28;20031;-66
2023/06/12 01:32:16;;;;;;;6.67;4.60;;;;;;;;;;5092685;28;20467;-66
2023/06/12 01:34:54;;;;;;;9.75;5.18;;;;;;;;;;5092927;28;20043;-66
2023/06/12 01:37:29;;;;;;;8.25;5.10;;;;;;;;;;5093955;28;20028;-66
2023/06/12 01:39:58;;;;;;;9.80;4.72;;;;;;;;;;5110125;28;20026;-66
2023/06/12 01:42:24;;;;;;;8.02;5.32;;;;;;;;;;5095238;28;20066;-66
2023/06/12 01:44:50;;;;;;;6.25;5.25;;;;;;;;;;5093807;28;20016;-67
2023/06/12 01:47:15;;;;;;;8.35;5.65;;;;;;;;;;5095578;28;20367;-66
2023/06/12 01:49:41;;;;;;;8.20;5.13;;;;;;;;;;5092115;28;20036;-66
2023/06/12 01:52:06;;;;;;;9.47;5.40;;;;;;;;;;5108111;28;20269;-66
2023/06/12 01:54:33;;;;;;;6.90;5.15;;;;;;;;;;5102674;28;20278;-65
2023/06/12 01:56:58;;;;;;;9.07;4.80;;;;;;;;;;5092628;28;20032;-66
2023/06/12 01:59:23;;;;;;;5.78;4.80;;;;;;;;;;5100803;28;20500;-66
2023/06/12 02:01:49;;;;;;;10.10;4.93;;;;;;;;;;5095169;28;20454;-66
2023/06/12 02:04:14;;;;;;;6.05;4.70;;;;;;;;;;5101399;28;20272;-66
2023/06/12 02:06:39;;;;;;;6.10;4.82;;;;;;;;;;5094787;28;20028;-66
2023/06/12 02:09:05;;;;;;;8.30;4.93;;;;;;;;;;5091802;28;20028;-66
2023/06/12 02:11:31;;;;;;;11.40;4.73;;;;;;;;;;5094776;28;20030;-66
2023/06/12 02:13:56;;;;;;;7.03;4.50;;;;;;;;;;5102284;28;20269;-66
2023/06/12 02:16:21;;;;;;;7.83;4.67;;;;;;;;;;5107414;28;20027;-66
2023/06/12 02:18:47;;;;;;;6.00;4.45;;;;;;;;;;5108896;28;20308;-67
2023/06/12 02:21:12;;;;;;;6.40;4.50;;;;;;;;;;5111535;28;20039;-66
2023/06/12 02:23:37;;;;;;;6.87;4.70;;;;;;;;;;5091246;28;20028;-66
2023/06/12 02:26:02;;;;;;;10.73;5.30;;;;;;;;;;5091315;28;20369;-66
2023/06/12 02:28:28;;;;;;;8.90;5.25;;;;;;;;;;5109145;28;20325;-66
2023/06/12 02:30:53;;;;;;;9.25;4.55;;;;;;;;;;5110488;28;20019;-66
2023/06/12 02:33:18;;;;;;;6.07;4.53;;;;;;;;;;5108490;28;20027;-66
2023/06/12 02:35:43;;;;;;;10.13;4.93;;;;;;;;;;5110231;28;20279;-66
2023/06/12 02:38:08;;;;;;;8.00;4.77;;;;;;;;;;5108318;28;20308;-65
2023/06/12 02:40:34;;;;;;;6.05;4.30;;;;;;;;;;5112343;28;20644;-65
2023/06/12 02:42:59;;;;;;;6.15;4.60;;;;;;;;;;5105958;28;20136;-65
2023/06/12 02:45:25;;;;;;;7.18;4.70;;;;;;;;;;5094711;28;20032;-66
2023/06/12 02:47:50;;;;;;;7.78;5.07;;;;;;;;;;5094369;28;20643;-65
2023/06/12 02:50:16;;;;;;;7.07;5.15;;;;;;;;;;5096309;28;20028;-65
2023/06/12 02:52:41;;;;;;;8.30;5.20;;;;;;;;;;5106511;28;20020;-66
2023/06/12 02:55:07;;;;;;;7.53;4.70;;;;;;;;;;5095065;28;20039;-65
2023/06/12 02:57:32;;;;;;;9.70;5.45;;;;;;;;;;5102536;28;20466;-65
2023/06/12 02:59:58;;;;;;;8.07;5.40;;;;;;;;;;5112653;28;20043;-65
2023/06/12 03:02:23;;;;;;;6.40;4.93;;;;;;;;;;5114225;28;20020;-65
2023/06/12 03:04:48;;;;;;;8.67;5.20;;;;;;;;;;5100744;28;20367;-65
2023/06/12 03:07:16;;;;;;;7.40;5.30;;;;;;;;;;5114604;28;20368;-65
2023/06/12 03:09:42;;;;;;;5.93;4.82;;;;;;;;;;5113953;28;20267;-66
2023/06/12 03:12:07;;;;;;;7.80;5.68;;;;;;;;;;5114403;28;20372;-66
2023/06/12 03:14:33;;;;;;;6.65;4.93;;;;;;;;;;5100082;28;20064;-66
2023/06/12 03:16:58;;;;;;;6.82;5.22;;;;;;;;;;5107002;28;20016;-66
2023/06/12 03:19:24;;;;;;;8.40;5.10;;;;;;;;;;5106023;28;20143;-66
2023/06/12 03:21:49;;;;;;;7.85;5.03;;;;;;;;;;5100357;28;20281;-66
2023/06/12 03:24:14;;;;;;;7.60;5.03;;;;;;;;;;5096306;28;20031;-66
2023/06/12 03:26:41;;;;;;;6.05;4.82;;;;;;;;;;5095566;28;20031;-65
2023/06/12 03:29:07;;;;;;;6.78;5.15;;;;;;;;;;5109980;28;20027;-66
2023/06/12 03:31:32;;;;;;;8.23;5.32;;;;;;;;;;5113807;28;20023;-66
2023/06/12 03:33:58;;;;;;;11.68;5.38;;;;;;;;;;5103924;28;20389;-66
2023/06/12 03:36:23;;;;;;;6.78;5.35;;;;;;;;;;5111989;28;20063;-66
2023/06/12 03:38:50;;;;;;;11.18;5.53;;;;;;;;;;5110178;28;20034;-66
2023/06/12 03:41:15;;;;;;;8.05;5.72;;;;;;;;;;5110426;28;20477;-66
2023/06/12 03:43:40;;;;;;;7.88;5.15;;;;;;;;;;5099260;28;20020;-66
2023/06/12 03:46:05;;;;;;;9.43;5.60;;;;;;;;;;5102710;28;20063;-66
2023/06/12 03:48:31;;;;;;;7.72;5.63;;;;;;;;;;5111435;28;20398;-66
2023/06/12 03:50:56;;;;;;;13.83;5.77;;;;;;;;;;5101148;28;20035;-66
2023/06/12 03:53:21;;;;;;;7.63;5.00;;;;;;;;;;5095369;28;20304;-66
2023/06/12 03:55:47;;;;;;;8.05;5.63;;;;;;;;;;5096823;28;20331;-66
2023/06/12 03:58:16;;;;;;;8.53;4.77;;;;;;;;;;5094168;28;20102;-66
2023/06/12 04:00:41;;;;;;;7.88;5.55;;;;;;;;;;5096455;28;20286;-66
2023/06/12 04:03:08;;;;;;;7.45;5.30;;;;;;;;;;5093949;28;20423;-66
2023/06/12 04:05:34;;;;;;;8.18;4.55;;;;;;;;;;5098797;28;20412;-66
2023/06/12 04:07:59;;;;;;;6.40;4.93;;;;;;;;;;5107751;28;20035;-66
2023/06/12 04:10:24;;;;;;;12.80;5.30;;;;;;;;;;5101342;28;20027;-66
2023/06/12 04:12:49;;;;;;;13.35;5.15;;;;;;;;;;5112593;28;20326;-66
2023/06/12 04:15:15;;;;;;;10.27;5.75;;;;;;;;;;5109962;28;20019;-66
2023/06/12 04:17:40;;;;;;;11.55;5.28;;;;;;;;;;5109097;28;20106;-66
2023/06/12 04:20:06;;;;;;;11.55;5.53;;;;;;;;;;5105073;28;20039;-66
2023/06/12 04:22:32;;;;;;;10.27;5.15;;;;;;;;;;5103050;28;20099;-66
2023/06/12 04:25:04;;;;;;;9.38;5.28;;;;;;;;;;5103745;28;20095;-66
2023/06/12 04:27:30;;;;;;;10.35;4.97;;;;;;;;;;5101835;28;20036;-66
2023/06/12 04:29:57;;;;;;;7.45;5.50;;;;;;;;;;5105424;28;20707;-66
2023/06/12 04:32:23;;;;;;;7.05;4.93;;;;;;;;;;5103028;28;20059;-66
2023/06/12 04:34:48;;;;;;;7.43;5.30;;;;;;;;;;5103745;28;20027;-66
2023/06/12 04:37:14;;;;;;;9.40;5.25;;;;;;;;;;5101523;28;20077;-66
2023/06/12 04:39:43;;;;;;;11.27;5.40;;;;;;;;;;5105914;28;20058;-66
2023/06/12 04:42:08;;;;;;;11.15;6.03;;;;;;;;;;5107689;28;20405;-66
2023/06/12 04:44:34;;;;;;;7.90;5.40;;;;;;;;;;5098237;28;20110;-66
2023/06/12 04:47:08;;;;;;;9.82;5.22;;;;;;;;;;5108452;28;20031;-66
2023/06/12 04:49:33;;;;;;;10.80;5.97;;;;;;;;;;5107688;28;20028;-66
2023/06/12 04:52:02;;;;;;;9.25;6.00;;;;;;;;;;5108947;28;20731;-66
2023/06/12 04:54:28;;;;;;;11.00;5.53;;;;;;;;;;5108548;28;20054;-66
2023/06/12 04:56:54;;;;;;;7.85;4.72;;;;;;;;;;5108220;28;20047;-66
2023/06/12 04:59:19;;;;;;;7.45;5.57;;;;;;;;;;5095312;28;20486;-66
2023/06/12 05:01:48;;;;;;;11.77;5.40;;;;;;;;;;5105125;28;20035;-67
2023/06/12 05:04:14;;;;;;;8.15;5.32;;;;;;;;;;5108741;28;20053;-65
2023/06/12 05:06:39;;;;;;;7.03;5.15;;;;;;;;;;5105233;28;20115;-65
2023/06/12 05:09:07;;;;;;;6.17;4.33;;;;;;;;;;5102614;28;20023;-66
2023/06/12 05:11:32;;;;;;;12.02;4.95;;;;;;;;;;5105072;28;20297;-66
2023/06/12 05:13:57;;;;;;;7.85;4.93;;;;;;;;;;5102320;28;20032;-66
2023/06/12 05:16:23;;;;;;;8.33;5.03;;;;;;;;;;5104400;28;20020;-66
2023/06/12 05:18:48;;;;;;;7.63;4.20;;;;;;;;;;5111346;28;20356;-66
2023/06/12 05:21:14;;;;;;;7.72;4.82;;;;;;;;;;5111545;28;20280;-66
2023/06/12 05:23:39;;;;;;;6.82;4.70;;;;;;;;;;5109033;28;20023;-66
2023/06/12 05:26:04;;;;;;;7.27;4.57;;;;;;;;;;5108518;28;20028;-66
2023/06/12 05:28:30;;;;;;;6.23;5.07;;;;;;;;;;5102171;28;20298;-66
2023/06/12 05:30:55;;;;;;;8.03;4.90;;;;;;;;;;5106527;28;20754;-66
2023/06/12 05:33:20;;;;;;;8.90;4.70;;;;;;;;;;5112380;28;20597;-66
2023/06/12 05:35:45;;;;;;;7.10;5.50;;;;;;;;;;5111887;28;20274;-66
2023/06/12 05:38:11;;;;;;;9.43;5.37;;;;;;;;;;5105389;28;20340;-66
2023/06/12 05:40:36;;;;;;;11.32;5.47;;;;;;;;;;5105344;28;20273;-66
2023/06/12 05:43:01;;;;;;;10.38;5.15;;;;;;;;;;5110737;28;20108;-66
2023/06/12 05:45:27;;;;;;;7.20;5.23;;;;;;;;;;5111734;28;20027;-65
2023/06/12 05:47:52;;;;;;;9.27;5.20;;;;;;;;;;5106587;28;20734;-65
2023/06/12 05:50:17;;;;;;;6.97;4.80;;;;;;;;;;5091494;28;20016;-66
2023/06/12 05:52:42;;;;;;;8.43;5.57;;;;;;;;;;5104945;28;20285;-66
2023/06/12 05:55:08;;;;;;;13.20;5.72;;;;;;;;;;5091294;28;20274;-66
2023/06/12 05:57:33;;;;;;;10.10;5.63;;;;;;;;;;5094449;28;20500;-66
2023/06/12 05:59:58;;;;;;;7.53;5.07;;;;;;;;;;5093010;28;20020;-66
2023/06/12 06:02:24;;;;;;;6.73;5.07;;;;;;;;;;5094915;28;20089;-66
2023/06/12 06:04:52;;;;;;;9.75;4.93;;;;;;;;;;5093013;28;20757;-66
2023/06/12 06:07:17;;;;;;;10.25;5.97;;;;;;;;;;5094192;28;20023;-66
2023/06/12 06:09:43;;;;;;;8.95;5.40;;;;;;;;;;5092996;28;20027;-66
2023/06/12 06:12:08;;;;;;;11.25;5.63;;;;;;;;;;5094725;28;20042;-66
2023/06/12 06:14:34;;;;;;;11.30;5.93;;;;;;;;;;5091592;28;20024;-66
2023/06/12 06:16:59;;;;;;;12.10;5.15;;;;;;;;;;5093474;28;20383;-66
2023/06/12 06:19:25;;;;;;;8.10;5.80;;;;;;;;;;5103480;28;20072;-65
2023/06/12 06:21:51;;;;;;;13.63;6.45;;;;;;;;;;5110701;28;20016;-66
2023/06/12 06:24:16;;;;;;;9.88;5.75;;;;;;;;;;5111008;28;20028;-66
2023/06/12 06:26:41;;;;;;;8.43;5.17;;;;;;;;;;5108649;28;20065;-66
2023/06/12 06:29:06;;;;;;;9.63;5.73;;;;;;;;;;5110368;28;20347;-66
2023/06/12 06:31:31;;;;;;;6.75;5.22;;;;;;;;;;5110256;28;20273;-65
2023/06/12 06:33:57;;;;;;;13.07;5.83;;;;;;;;;;5110964;28;20094;-65
2023/06/12 06:36:23;;;;;;;14.63;5.67;;;;;;;;;;5108582;28;20308;-66
2023/06/12 06:38:48;;;;;;;8.98;5.38;;;;;;;;;;5110078;28;20289;-66
2023/06/12 06:41:13;;;;;;;7.83;5.27;;;;;;;;;;5108047;28;20111;-66
2023/06/12 06:43:38;;;;;;;6.90;4.97;;;;;;;;;;5100798;28;20259;-66
2023/06/12 06:46:03;;;;;;;8.43;4.97;;;;;;;;;;5091254;28;20629;-66
2023/06/12 06:48:29;;;;;;;7.17;4.97;;;;;;;;;;5091954;28;20298;-66
2023/06/12 06:50:54;;;;;;;9.83;5.20;;;;;;;;;;5095891;28;20261;-66
2023/06/12 06:53:19;;;;;;;9.07;5.93;;;;;;;;;;5109759;28;20269;-65
2023/06/12 06:55:45;;;;;;;9.57;5.90;;;;;;;;;;5109315;28;20517;-66
2023/06/12 06:58:10;;;;;;;7.80;6.18;;;;;;;;;;5110859;28;20110;-66
2023/06/12 07:00:35;;;;;;;8.82;5.38;;;;;;;;;;5109562;28;20047;-66
2023/06/12 07:03:02;;;;;;;17.33;5.65;;;;;;;;;;5110515;28;20023;-66
2023/06/12 07:05:27;;;;;;;16.20;5.30;;;;;;;;;;5109616;28;20039;-65
2023/06/12 07:07:52;;;;;;;15.95;5.47;;;;;;;;;;5091830;28;20032;-65
2023/06/12 07:10:17;;;;;;;10.83;5.83;;;;;;;;;;5109634;28;20386;-66
2023/06/12 07:12:43;;;;;;;7.87;5.20;;;;;;;;;;5110175;28;20261;-65
2023/06/12 07:15:08;;;;;;;8.90;5.70;;;;;;;;;;5102338;28;20274;-66
2023/06/12 07:17:34;;;;;;;13.05;5.47;;;;;;;;;;5102119;28;20376;-65
2023/06/12 07:19:59;;;;;;;6.90;5.38;;;;;;;;;;5103901;28;20031;-66
2023/06/12 07:22:24;;;;;;;8.38;5.70;;;;;;;;;;5095418;28;20039;-66
2023/06/12 07:24:50;;;;;;;8.38;5.35;;;;;;;;;;5105028;28;20073;-66
2023/06/12 07:27:15;;;;;;;8.25;5.38;;;;;;;;;;5083042;28;20410;-66
2023/06/12 07:29:41;;;;;;;9.03;5.73;;;;;;;;;;5112929;28;20070;-66
2023/06/12 07:32:06;;;;;;;12.67;5.93;;;;;;;;;;5113179;28;20913;-65
2023/06/12 07:34:31;;;;;;;9.10;5.25;;;;;;;;;;5112669;28;20409;-66
2023/06/12 07:36:58;;;;;;;10.13;5.53;;;;;;;;;;5112460;28;20411;-66
2023/06/12 07:39:24;;;;;;;7.93;5.35;;;;;;;;;;5110656;28;20616;-66
2023/06/12 07:41:49;;;;;;;9.82;5.57;;;;;;;;;;5106966;28;20110;-66
2023/06/12 07:44:14;;;;;;;9.73;5.65;;;;;;;;;;5113021;28;20103;-66
2023/06/12 07:46:41;;;;;;;9.17;5.70;;;;;;;;;;5113585;28;20020;-65
2023/06/12 07:49:06;;;;;;;10.27;5.20;;;;;;;;;;5113429;28;20681;-66
2023/06/12 07:51:31;;;;;;;6.33;4.73;;;;;;;;;;5113364;28;20039;-66
2023/06/12 07:53:57;;;;;;;13.43;5.67;;;;;;;;;;5098120;28;20278;-66
2023/06/12 07:56:22;;;;;;;9.83;6.00;;;;;;;;;;5094108;28;20285;-66
2023/06/12 07:58:47;;;;;;;8.00;5.72;;;;;;;;;;5096215;28;20373;-66
2023/06/12 08:01:13;;;;;;;7.63;5.13;;;;;;;;;;5098742;28;20376;-65
2023/06/12 08:03:39;;;;;;;8.05;5.68;;;;;;;;;;5103266;28;20051;-66
2023/06/12 08:06:11;;;;;;;12.15;5.50;;;;;;;;;;5101615;28;20016;-67
2023/06/12 08:08:40;;;;;;;8.30;5.50;;;;;;;;;;5100142;28;20069;-65
2023/06/12 08:11:06;;;;;;;11.90;5.07;;;;;;;;;;5094471;28;20371;-65
2023/06/12 08:13:32;;;;;;;10.68;5.82;;;;;;;;;;5108554;28;20012;-65
2023/06/12 08:15:57;;;;;;;9.63;5.68;;;;;;;;;;5101869;28;20026;-66
2023/06/12 08:18:23;;;;;;;10.05;4.97;;;;;;;;;;5112978;28;20530;-66
2023/06/12 08:20:48;;;;;;;8.48;5.35;;;;;;;;;;5100048;28;20035;-66
2023/06/12 08:23:13;;;;;;;10.82;5.90;;;;;;;;;;5101893;28;20035;-66
2023/06/12 08:25:39;;;;;;;12.38;4.80;;;;;;;;;;5107865;28;20031;-66
2023/06/12 08:28:04;;;;;;;11.98;5.97;;;;;;;;;;5105366;28;20455;-65
2023/06/12 08:30:30;;;;;;;7.45;5.72;;;;;;;;;;5087846;28;20023;-65
2023/06/12 08:32:55;;;;;;;8.77;5.63;;;;;;;;;;5069433;28;20024;-65
2023/06/12 08:35:21;;;;;;;12.45;5.57;;;;;;;;;;5066961;28;20035;-66
2023/06/12 08:37:46;;;;;;;6.03;4.70;;;;;;;;;;5065860;28;20082;-65
2023/06/12 08:40:11;;;;;;;9.83;5.20;;;;;;;;;;5065502;28;20335;-66
2023/06/12 08:42:37;;;;;;;8.95;5.22;;;;;;;;;;5067164;28;21218;-65
2023/06/12 08:45:03;;;;;;;9.48;4.85;;;;;;;;;;5060024;28;20131;-66
2023/06/12 08:47:32;;;;;;;8.00;5.38;;;;;;;;;;5065083;28;20028;-65
2023/06/12 08:49:57;;;;;;;9.02;5.85;;;;;;;;;;5065776;28;20271;-65
2023/06/12 08:52:24;;;;;;;7.28;5.45;;;;;;;;;;5062180;28;21046;-66
2023/06/12 08:54:50;;;;;;;10.60;5.75;;;;;;;;;;5061139;28;20023;-65
2023/06/12 08:57:15;;;;;;;22.00;6.78;;;;;;;;;;5065988;28;20346;-66
2023/06/12 08:59:41;;;;;;;9.70;6.35;;;;;;;;;;5066030;28;20039;-65
2023/06/12 09:02:08;;;;;;;9.20;5.72;;;;;;;;;;5066904;28;20307;-65
2023/06/12 09:04:44;;;;;;;11.77;5.70;;;;;;;;;;5060745;28;20017;-65
2023/06/12 09:07:11;;;;;;;11.77;5.75;;;;;;;;;;5064551;28;21015;-65
2023/06/12 09:09:37;;;;;;;10.65;5.45;;;;;;;;;;5062353;28;20920;-65
2023/06/12 09:12:02;;;;;;;6.07;5.32;;;;;;;;;;5058225;28;20097;-65
2023/06/12 09:14:28;;;;;;;7.18;5.47;;;;;;;;;;5059567;28;20035;-65
2023/06/12 09:16:53;;;;;;;8.70;5.72;;;;;;;;;;5064105;28;20032;-65
2023/06/12 09:19:18;;;;;;;8.25;5.60;;;;;;;;;;5064440;28;20888;-64
2023/06/12 09:21:46;;;;;;;10.85;5.90;;;;;;;;;;5057658;28;20198;-65
2023/06/12 09:24:15;;;;;;;7.90;5.25;;;;;;;;;;5066282;28;20030;-64
2023/06/12 09:26:41;;;;;;;8.43;5.28;;;;;;;;;;5066176;28;20076;-66
2023/06/12 09:29:06;;;;;;;8.57;5.47;;;;;;;;;;5055480;28;20038;-65
2023/06/12 09:31:32;;;;;;;16.45;6.55;;;;;;;;;;5064273;28;20853;-65
2023/06/12 09:33:58;;;;;;;8.65;6.05;;;;;;;;;;5066497;28;20780;-64
2023/06/12 09:36:27;;;;;;;9.82;6.00;;;;;;;;;;5059249;28;20865;-64
2023/06/12 09:38:52;;;;;;;12.10;6.55;;;;;;;;;;5086944;28;20019;-65
2023/06/12 09:41:21;;;;;;;11.02;6.72;;;;;;;;;;5065693;28;20043;-65
2023/06/12 09:43:46;;;;;;;10.02;5.40;;;;;;;;;;5062038;28;20024;-66
2023/06/12 09:46:11;;;;;;;17.10;6.47;;;;;;;;;;5059217;28;20131;-65
2023/06/12 09:48:38;;;;;;;11.10;6.00;;;;;;;;;;5100150;28;20272;-65
2023/06/12 09:51:07;;;;;;;9.32;6.00;;;;;;;;;;5096545;28;20050;-66
2023/06/12 09:53:36;;;;;;;15.30;6.03;;;;;;;;;;5102098;28;20032;-63
2023/06/12 09:56:06;;;;;;;10.18;6.20;;;;;;;;;;5101065;28;20024;-65
2023/06/12 09:58:33;;;;;;;10.15;6.38;;;;;;;;;;5100404;28;20020;-65
2023/06/12 10:01:01;;;;;;;11.98;6.35;;;;;;;;;;5101437;28;20081;-65
2023/06/12 10:03:28;;;;;;;10.38;6.45;;;;;;;;;;5088342;28;20084;-65
2023/06/12 10:05:54;;;;;;;8.30;5.68;;;;;;;;;;5099893;28;20470;-65
2023/06/12 10:08:20;;;;;;;7.97;5.82;;;;;;;;;;5100459;28;20070;-65
2023/06/12 10:10:45;;;;;;;11.55;7.15;;;;;;;;;;5102128;28;20469;-66
2023/06/12 10:13:12;;;;;;;18.45;6.95;;;;;;;;;;5098877;28;20069;-65
2023/06/12 10:15:38;;;;;;;14.43;6.57;;;;;;;;;;5101634;28;20035;-66
2023/06/12 10:18:04;;;;;;;15.18;6.55;;;;;;;;;;5104840;28;20041;-65
2023/06/12 10:20:30;;;;;;;8.10;5.53;;;;;;;;;;5111299;28;20031;-65
2023/06/12 10:22:56;;;;;;;12.98;7.22;;;;;;;;;;5105420;28;20425;-65
2023/06/12 10:25:22;;;;;;;11.50;6.10;;;;;;;;;;5107603;28;20043;-65
2023/06/12 10:27:49;;;;;;;9.48;6.50;;;;;;;;;;5107477;28;20036;-65
2023/06/12 10:30:18;;;;;;;12.00;6.07;;;;;;;;;;5108374;28;20035;-64
2023/06/12 10:32:44;;;;;;;11.55;6.38;;;;;;;;;;5101343;28;20023;-65
2023/06/12 10:35:09;;;;;;;10.07;6.15;;;;;;;;;;5105691;28;20015;-64
2023/06/12 10:37:39;;;;;;;10.05;5.75;;;;;;;;;;5099229;28;20085;-65
2023/06/12 10:40:15;;;;;;;9.93;6.43;;;;;;;;;;5110586;28;20046;-64
2023/06/12 10:42:42;;;;;;;10.75;6.50;;;;;;;;;;5104540;28;20073;-65
2023/06/12 10:45:16;;;;;;;9.13;6.05;;;;;;;;;;5100804;28;20030;-64
2023/06/12 10:47:41;;;;;;;14.25;6.47;;;;;;;;;;5092322;28;20069;-65
2023/06/12 10:50:06;;;;;;;9.75;6.45;;;;;;;;;;5110967;28;20354;-65
2023/06/12 10:52:32;;;;;;;9.13;5.45;;;;;;;;;;5111204;28;20501;-64
2023/06/12 10:55:15;;;;;;;9.98;5.28;;;;;;;;;;5110886;28;20351;-65
2023/06/12 10:58:01;;;;;;;9.52;6.20;;;;;;;;;;5098066;28;20066;-63
2023/06/12 11:00:31;;;;;;;11.43;6.35;;;;;;;;;;5109201;28;20079;-65
2023/06/12 11:02:58;;;;;;;9.38;5.93;;;;;;;;;;5112066;28;20085;-65
2023/06/12 11:05:24;;;;;;;9.45;6.20;;;;;;;;;;5110830;28;20036;-65
2023/06/12 11:08:10;;;;;;;13.25;6.53;;;;;;;;;;5092475;28;20048;-65
2023/06/12 11:10:35;;;;;;;10.07;6.78;;;;;;;;;;5076734;28;20876;-63
2023/06/12 11:13:02;;;;;;;9.63;6.00;;;;;;;;;;5101202;28;20022;-64
2023/06/12 11:15:28;;;;;;;8.75;6.38;;;;;;;;;;5104478;28;20020;-64
2023/06/12 11:17:53;;;;;;;10.80;6.72;;;;;;;;;;5109580;28;20023;-65
2023/06/12 11:20:20;;;;;;;10.70;5.93;;;;;;;;;;5070927;28;20016;-65
2023/06/12 11:22:49;;;;;;;11.90;6.30;;;;;;;;;;5068874;28;20032;-65
2023/06/12 11:25:16;;;;;;;6.45;5.72;;;;;;;;;;5070270;28;20020;-65
2023/06/12 11:27:42;;;;;;;9.23;5.93;;;;;;;;;;5068948;28;20039;-65
2023/06/12 11:30:08;;;;;;;7.57;5.80;;;;;;;;;;5069412;28;20185;-66
2023/06/12 11:32:33;;;;;;;15.70;6.22;;;;;;;;;;5069335;28;20138;-64
2023/06/12 11:35:03;;;;;;;6.60;5.60;;;;;;;;;;5070104;28;20119;-64
2023/06/12 11:37:29;;;;;;;8.63;6.25;;;;;;;;;;5068943;28;20297;-65
2023/06/12 11:40:06;;;;;;;10.10;6.38;;;;;;;;;;5067684;28;20027;-65
2023/06/12 11:42:32;;;;;;;8.18;5.68;;;;;;;;;;5063456;28;20105;-65
2023/06/12 11:44:57;;;;;;;8.35;5.72;;;;;;;;;;5071138;28;20897;-65
2023/06/12 11:47:23;;;;;;;8.85;5.55;;;;;;;;;;5106826;28;20020;-65
2023/06/12 11:49:48;;;;;;;9.57;5.97;;;;;;;;;;5112583;28;20497;-65
2023/06/12 11:52:14;;;;;;;11.30;6.78;;;;;;;;;;5106038;28;20032;-65
2023/06/12 11:54:58;;;;;;;8.40;6.45;;;;;;;;;;5103218;28;20115;-65
2023/06/12 11:57:26;;;;;;;7.03;6.32;;;;;;;;;;5080588;28;20032;-66
2023/06/12 11:59:52;;;;;;;11.93;6.18;;;;;;;;;;5101786;28;20016;-66
2023/06/12 12:02:18;;;;;;;11.52;5.65;;;;;;;;;;5108754;28;20622;-65
2023/06/12 12:04:43;;;;;;;9.47;5.57;;;;;;;;;;5100195;28;20073;-65
2023/06/12 12:07:08;;;;;;;6.37;5.73;;;;;;;;;;5097097;28;20107;-65
2023/06/12 12:09:34;;;;;;;7.00;6.30;;;;;;;;;;5102807;28;20027;-65
2023/06/12 12:12:10;;;;;;;7.53;5.03;;;;;;;;;;5101469;28;20024;-64
2023/06/12 12:14:47;;;;;;;10.80;6.75;;;;;;;;;;5104781;28;20031;-66
2023/06/12 12:17:15;;;;;;;10.27;5.57;;;;;;;;;;5105192;28;20119;-65
2023/06/12 12:19:41;;;;;;;7.93;6.25;;;;;;;;;;5108573;28;20051;-65
2023/06/12 12:22:08;;;;;;;7.78;5.95;;;;;;;;;;5112365;28;20030;-65
2023/06/12 12:24:37;;;;;;;7.25;5.97;;;;;;;;;;5111085;28;20038;-65
2023/06/12 12:27:03;;;;;;;7.57;5.13;;;;;;;;;;5099754;28;20023;-65
2023/06/12 12:29:29;;;;;;;6.35;5.35;;;;;;;;;;5108730;28;20481;-65
2023/06/12 12:31:55;;;;;;;11.10;6.00;;;;;;;;;;5111076;28;20042;-65
2023/06/12 12:34:20;;;;;;;7.68;5.70;;;;;;;;;;5109227;28;20112;-65
2023/06/12 12:36:47;;;;;;;9.52;5.55;;;;;;;;;;5110941;28;20049;-65
2023/06/12 12:39:12;;;;;;;12.07;6.20;;;;;;;;;;5108924;28;20116;-65
2023/06/12 12:41:37;;;;;;;8.43;5.53;;;;;;;;;;5111274;28;20103;-65
2023/06/12 12:44:03;;;;;;;7.63;5.88;;;;;;;;;;5098112;28;20266;-66
2023/06/12 12:46:28;;;;;;;9.63;5.20;;;;;;;;;;5092935;28;20024;-66
2023/06/12 12:48:53;;;;;;;8.07;6.17;;;;;;;;;;5092453;28;20684;-65
2023/06/12 12:51:18;;;;;;;9.18;6.22;;;;;;;;;;5111595;28;20288;-65
2023/06/12 12:53:44;;;;;;;6.18;5.57;;;;;;;;;;5111103;28;20102;-65
2023/06/12 12:56:10;;;;;;;14.23;6.22;;;;;;;;;;5112199;28;20125;-66
2023/06/12 12:58:36;;;;;;;11.32;6.50;;;;;;;;;;5111739;28;20058;-66
2023/06/12 13:01:02;;;;;;;8.98;5.82;;;;;;;;;;5112339;28;20483;-65
2023/06/12 13:03:35;;;;;;;11.25;6.35;;;;;;;;;;5111489;28;20030;-64
2023/06/12 13:06:01;;;;;;;8.25;5.25;;;;;;;;;;5112072;28;20436;-64
2023/06/12 13:08:26;;;;;;;8.13;5.82;;;;;;;;;;5109537;28;20471;-65
2023/06/12 13:10:51;;;;;;;14.23;6.13;;;;;;;;;;5110410;28;20016;-65
2023/06/12 13:13:18;;;;;;;12.60;5.67;;;;;;;;;;5099237;28;20368;-65
2023/06/12 13:15:45;;;;;;;12.85;5.82;;;;;;;;;;5064685;28;20045;-65
2023/06/12 13:18:10;;;;;;;9.52;5.40;;;;;;;;;;5066065;28;20237;-65
2023/06/12 13:20:35;;;;;;;9.18;5.78;;;;;;;;;;5061275;28;20904;-65
2023/06/12 13:23:01;;;;;;;7.33;5.67;;;;;;;;;;5060207;28;20299;-65
2023/06/12 13:25:26;;;;;;;12.57;5.70;;;;;;;;;;5085198;28;20032;-66
2023/06/12 13:27:51;;;;;;;10.03;5.37;;;;;;;;;;5097102;28;20028;-65
2023/06/12 13:30:17;;;;;;;7.37;5.23;;;;;;;;;;5099507;28;20024;-67
2023/06/12 13:32:42;;;;;;;12.98;5.57;;;;;;;;;;5109753;28;20020;-66
2023/06/12 13:35:08;;;;;;;5.97;5.30;;;;;;;;;;5098242;28;20062;-65
2023/06/12 13:37:34;;;;;;;9.15;5.57;;;;;;;;;;5102536;28;20304;-66
2023/06/12 13:40:00;;;;;;;9.70;5.72;;;;;;;;;;5102080;28;20040;-66
2023/06/12 13:42:25;;;;;;;8.35;5.45;;;;;;;;;;5108518;28;20063;-66
2023/06/12 13:44:50;;;;;;;8.83;5.47;;;;;;;;;;5102985;28;20454;-67
2023/06/12 13:47:15;;;;;;;9.13;4.93;;;;;;;;;;5099716;28;20286;-67
2023/06/12 13:49:41;;;;;;;8.20;5.10;;;;;;;;;;5091349;28;20808;-65
2023/06/12 13:52:12;;;;;;;6.90;5.07;;;;;;;;;;5101141;28;20024;-65
2023/06/12 13:54:38;;;;;;;7.20;4.80;;;;;;;;;;5096221;28;20054;-65
2023/06/12 13:57:03;;;;;;;8.90;6.00;;;;;;;;;;5097194;28;20052;-66
2023/06/12 13:59:28;;;;;;;8.02;4.93;;;;;;;;;;5101062;28;20024;-67
2023/06/12 14:01:54;;;;;;;10.80;5.20;;;;;;;;;;5100540;28;20020;-67
2023/06/12 14:04:20;;;;;;;8.48;5.30;;;;;;;;;;5101517;28;20873;-66
2023/06/12 14:06:51;;;;;;;6.13;4.75;;;;;;;;;;5100649;28;20067;-65
2023/06/12 14:09:16;;;;;;;6.57;4.57;;;;;;;;;;5106039;28;20057;-64
2023/06/12 14:11:41;;;;;;;9.73;5.38;;;;;;;;;;5093618;28;20113;-64
2023/06/12 14:14:08;;;;;;;9.07;5.35;;;;;;;;;;5094403;28;20070;-64
2023/06/12 14:16:35;;;;;;;8.63;5.28;;;;;;;;;;5095607;28;20508;-65
2023/06/12 14:19:00;;;;;;;6.32;5.22;;;;;;;;;;5103353;28;20042;-65
2023/06/12 14:21:25;;;;;;;8.93;5.10;;;;;;;;;;5095050;28;20028;-64
2023/06/12 14:23:51;;;;;;;11.98;4.75;;;;;;;;;;5104537;28;20038;-66
2023/06/12 14:26:16;;;;;;;5.90;4.57;;;;;;;;;;5092481;28;20867;-64
2023/06/12 14:28:42;;;;;;;6.07;5.07;;;;;;;;;;5108206;28;20031;-65
2023/06/12 14:31:08;;;;;;;7.78;5.05;;;;;;;;;;5110259;28;20016;-65
2023/06/12 14:33:33;;;;;;;8.23;4.85;;;;;;;;;;5098563;28;20069;-65